Milton, North Dakota
Current Conditions -  °F | °C
As of 7:15 AM on Wednesday 22 Oct 2014 (Local Time) from KD55 Reporting Station
Clear Clear  
Wind Chill: 54°   Ceiling: Unl
Heat Index: 54°   Visibility: 10mi
Dew Point: 41°   Wind: 22mph
Humidity: 62%   Direction: 170°S
Pressure: 29.71"   Gusts: 28mph
Location:  48.63°N, 98.04°W
Report Text: KD55 221215Z AUTO 17019G24KT 10SM CLR 12/05 A2971 RMK AO2
Loading
Personal Weather Stations






























Interactive Weather Map
Tropical Storm Tracking
New forecast layout! Learn more

10-Day Weather Forecast

Advertisements
Track Severe Weather on mobile